Time;durP1;ratioP1;P1;durP2;ratioP2;P2;SDS_P1;SDS_P2;PMS_P1;PMS_P2;Temp;Humidity;BMP_temperature;BMP_pressure;BME280_temperature;BME280_humidity;BME280_pressure;Samples;Min_cycle;Max_cycle;Signal;HPM_P1;HPM_P2
2021/12/04 00:00:25;;;;;;;6.78;5.55;;;5.80;99.90;;;;;;5020266;28;20053;-56
2021/12/04 00:02:54;;;;;;;9.30;5.45;;;5.80;99.90;;;;;;5023494;28;20046;-55
2021/12/04 00:05:23;;;;;;;6.93;5.63;;;5.70;99.90;;;;;;5022412;28;20499;-57
2021/12/04 00:07:49;;;;;;;7.07;5.63;;;5.60;99.90;;;;;;5023195;28;20123;-57
2021/12/04 00:10:18;;;;;;;6.25;5.13;;;5.50;99.90;;;;;;5023440;28;20088;-58
2021/12/04 00:12:45;;;;;;;6.65;4.93;;;5.40;99.90;;;;;;5022855;28;20469;-55
2021/12/04 00:15:12;;;;;;;7.00;5.57;;;5.40;99.90;;;;;;5021854;28;20076;-57
2021/12/04 00:17:39;;;;;;;6.75;5.28;;;5.40;99.90;;;;;;5021475;28;20093;-58
2021/12/04 00:20:07;;;;;;;6.43;5.50;;;5.30;99.90;;;;;;5020861;28;20049;-56
2021/12/04 00:22:34;;;;;;;6.82;5.10;;;5.30;99.90;;;;;;5022340;28;20067;-55
2021/12/04 00:25:02;;;;;;;7.30;5.03;;;5.20;99.90;;;;;;5022697;28;20469;-57
2021/12/04 00:27:30;;;;;;;6.40;4.57;;;5.20;99.90;;;;;;5021400;28;20541;-56
2021/12/04 00:29:58;;;;;;;6.47;5.13;;;5.20;99.90;;;;;;5021239;28;20059;-57
2021/12/04 00:32:34;;;;;;;8.18;6.18;;;5.20;99.90;;;;;;5019779;28;20139;-56
2021/12/04 00:35:12;;;;;;;6.35;5.43;;;5.10;99.90;;;;;;5022118;28;20089;-57
2021/12/04 00:38:08;;;;;;;7.03;5.13;;;5.00;99.90;;;;;;5008091;28;20382;-57
2021/12/04 00:51:21;;;;;;;8.02;4.80;;;5.00;99.90;;;;;;5021685;28;20581;-57
2021/12/04 00:53:49;;;;;;;6.25;4.60;;;5.00;99.90;;;;;;5022277;28;20485;-57
2021/12/04 00:56:15;;;;;;;6.75;4.88;;;4.90;99.90;;;;;;5021894;28;20119;-55
2021/12/04 00:58:42;;;;;;;7.13;5.20;;;4.90;99.90;;;;;;5021949;28;20045;-57
2021/12/04 01:01:09;;;;;;;7.38;5.50;;;4.90;99.90;;;;;;5021446;28;20172;-57
2021/12/04 01:03:36;;;;;;;8.18;6.10;;;4.90;99.90;;;;;;5021777;28;20065;-58
2021/12/04 01:06:05;;;;;;;8.32;6.03;;;4.90;99.90;;;;;;5022422;28;20060;-57
2021/12/04 01:08:32;;;;;;;7.85;5.97;;;4.90;99.90;;;;;;5022135;28;20141;-56
2021/12/04 01:11:01;;;;;;;8.07;6.05;;;5.00;99.90;;;;;;5021533;28;20168;-56
2021/12/04 01:13:32;;;;;;;10.18;6.22;;;4.90;99.90;;;;;;5021775;28;20133;-57
2021/12/04 01:15:59;;;;;;;7.57;5.82;;;4.90;99.90;;;;;;5000359;28;20053;-57
2021/12/04 01:18:26;;;;;;;8.60;6.43;;;4.90;99.90;;;;;;5014516;28;20544;-57
2021/12/04 01:20:54;;;;;;;8.52;6.13;;;4.90;99.90;;;;;;5021178;28;20117;-57
2021/12/04 01:23:22;;;;;;;7.00;5.78;;;4.80;99.90;;;;;;5023016;28;20045;-57
2021/12/04 01:25:49;;;;;;;7.90;5.55;;;4.80;99.90;;;;;;5021982;28;20457;-57
2021/12/04 01:28:16;;;;;;;9.38;7.18;;;4.80;99.90;;;;;;5021736;28;20129;-57
2021/12/04 01:30:43;;;;;;;7.78;5.78;;;4.80;99.90;;;;;;5020955;28;20111;-57
2021/12/04 01:33:10;;;;;;;9.35;6.40;;;4.70;99.90;;;;;;5020769;28;20046;-58
2021/12/04 01:35:37;;;;;;;7.07;5.40;;;4.70;99.90;;;;;;5022396;28;20199;-57
2021/12/04 01:38:04;;;;;;;7.15;5.50;;;4.60;99.90;;;;;;5022122;28;20046;-56
2021/12/04 01:40:31;;;;;;;8.70;5.72;;;4.60;99.90;;;;;;5024892;28;20077;-57
2021/12/04 01:42:57;;;;;;;7.80;6.03;;;4.50;99.90;;;;;;5025471;28;21068;-55
2021/12/04 01:45:24;;;;;;;7.15;6.10;;;4.50;99.90;;;;;;5024731;28;20477;-57
2021/12/04 01:47:57;;;;;;;8.20;5.97;;;4.50;99.90;;;;;;5025404;28;20160;-56
2021/12/04 01:50:24;;;;;;;6.35;4.70;;;4.40;99.90;;;;;;5025188;28;20524;-56
2021/12/04 01:52:55;;;;;;;7.13;5.20;;;4.40;99.90;;;;;;5025861;28;20083;-56
2021/12/04 01:55:32;;;;;;;8.68;5.88;;;4.30;99.90;;;;;;5025119;28;20064;-57
2021/12/04 01:58:02;;;;;;;9.18;6.47;;;4.30;99.90;;;;;;5025026;28;20080;-55
2021/12/04 02:00:31;;;;;;;7.72;6.03;;;4.30;99.90;;;;;;5022291;28;20073;-57
2021/12/04 02:02:58;;;;;;;8.23;6.43;;;4.20;99.90;;;;;;5025805;28;20528;-57
2021/12/04 02:05:25;;;;;;;7.70;5.78;;;4.20;99.90;;;;;;5024534;28;20051;-54
2021/12/04 02:07:51;;;;;;;7.10;5.07;;;4.20;99.90;;;;;;5024697;28;20160;-56
2021/12/04 02:10:18;;;;;;;7.07;5.30;;;4.20;99.90;;;;;;5024946;28;20465;-56
2021/12/04 02:12:46;;;;;;;7.00;5.32;;;4.20;99.90;;;;;;5023177;28;20132;-56
2021/12/04 02:15:13;;;;;;;6.85;5.43;;;4.20;99.90;;;;;;5024039;28;20089;-56
2021/12/04 02:17:40;;;;;;;7.20;5.40;;;4.20;99.90;;;;;;5007648;28;20659;-57
2021/12/04 02:20:11;;;;;;;7.85;5.93;;;4.20;99.90;;;;;;5024256;28;20092;-56
2021/12/04 02:22:38;;;;;;;8.00;5.75;;;4.10;99.90;;;;;;5024766;28;20050;-57
2021/12/04 02:25:07;;;;;;;6.68;5.15;;;4.10;99.90;;;;;;5024708;28;20168;-57
2021/12/04 02:27:34;;;;;;;7.82;5.20;;;4.10;99.90;;;;;;5024855;28;20061;-57
2021/12/04 02:30:02;;;;;;;7.88;5.13;;;4.00;99.90;;;;;;5024059;28;20072;-58
2021/12/04 02:32:30;;;;;;;7.85;5.35;;;4.00;99.90;;;;;;5017937;28;20041;-56
2021/12/04 02:34:57;;;;;;;8.63;5.85;;;3.90;99.90;;;;;;5025630;28;20104;-56
2021/12/04 02:37:24;;;;;;;7.32;5.13;;;3.90;99.90;;;;;;5025662;28;20139;-56
2021/12/04 02:39:58;;;;;;;8.40;5.68;;;3.80;99.90;;;;;;5025974;28;20081;-56
2021/12/04 02:42:28;;;;;;;7.85;6.50;;;3.80;99.90;;;;;;5025849;28;20072;-56
2021/12/04 02:44:55;;;;;;;7.35;5.35;;;3.70;99.90;;;;;;5025432;28;20563;-57
2021/12/04 02:47:21;;;;;;;8.68;5.15;;;3.70;99.90;;;;;;5026389;28;20132;-57
2021/12/04 02:49:48;;;;;;;7.10;4.93;;;3.70;99.90;;;;;;5025884;28;20096;-56
2021/12/04 02:52:16;;;;;;;8.93;6.30;;;3.70;99.90;;;;;;5026149;28;20136;-57
2021/12/04 02:54:43;;;;;;;8.55;5.32;;;3.70;99.90;;;;;;5024530;28;20132;-56
2021/12/04 02:57:12;;;;;;;7.43;5.07;;;3.70;99.90;;;;;;5026381;28;20073;-56
2021/12/04 02:59:39;;;;;;;7.15;4.93;;;3.70;99.90;;;;;;5023728;28;20084;-56
2021/12/04 03:02:10;;;;;;;9.52;6.22;;;3.70;99.90;;;;;;5026319;28;20080;-56
2021/12/04 03:04:37;;;;;;;7.75;5.07;;;3.70;99.90;;;;;;5025175;28;20460;-55
2021/12/04 03:07:03;;;;;;;7.65;5.43;;;3.70;99.90;;;;;;5025707;28;20455;-57
2021/12/04 03:09:30;;;;;;;8.05;5.60;;;3.80;99.90;;;;;;5023929;28;20167;-57
2021/12/04 03:12:00;;;;;;;7.80;5.55;;;3.80;99.90;;;;;;5023668;28;20060;-55
2021/12/04 03:14:27;;;;;;;6.80;4.78;;;3.80;99.90;;;;;;5023217;28;20140;-56
2021/12/04 03:16:53;;;;;;;8.65;5.50;;;3.90;99.90;;;;;;5025295;28;20110;-57
2021/12/04 03:19:20;;;;;;;8.30;5.43;;;3.90;99.90;;;;;;5025041;28;20054;-58
2021/12/04 03:21:47;;;;;;;7.88;5.10;;;3.90;99.90;;;;;;5024577;28;20136;-55
2021/12/04 03:24:16;;;;;;;9.05;5.88;;;3.90;99.90;;;;;;5024998;28;20089;-57
2021/12/04 03:26:43;;;;;;;6.82;5.00;;;3.90;99.90;;;;;;5025743;28;20073;-57
2021/12/04 03:29:12;;;;;;;7.60;5.15;;;3.90;99.90;;;;;;5023556;28;20045;-57
2021/12/04 03:32:03;;;;;;;6.82;4.72;;;3.90;99.90;;;;;;5023978;28;20069;-57
2021/12/04 03:40:08;;;;;;;6.25;4.50;;;4.10;99.90;;;;;;5024418;28;20085;-56
2021/12/04 03:42:38;;;;;;;6.60;4.45;;;4.20;99.90;;;;;;5024964;28;20149;-57
2021/12/04 03:45:06;;;;;;;5.68;4.32;;;4.20;99.90;;;;;;5023917;28;20164;-57
2021/12/04 03:47:33;;;;;;;5.45;4.00;;;4.30;99.90;;;;;;5025665;28;20084;-57
2021/12/04 03:49:59;;;;;;;7.40;4.55;;;4.30;99.90;;;;;;5024647;28;20128;-55
2021/12/04 03:52:26;;;;;;;5.80;4.22;;;4.30;99.90;;;;;;5024269;28;20064;-58
2021/12/04 03:54:53;;;;;;;6.07;4.50;;;4.40;99.90;;;;;;5023883;28;20144;-56
2021/12/04 03:57:20;;;;;;;5.60;3.83;;;4.30;99.90;;;;;;5025271;28;20148;-57
2021/12/04 03:59:47;;;;;;;4.60;3.50;;;4.20;99.90;;;;;;5023801;28;20186;-57
2021/12/04 04:02:15;;;;;;;5.60;4.18;;;4.20;99.90;;;;;;5006049;28;20671;-57
2021/12/04 04:04:42;;;;;;;6.53;4.50;;;4.20;99.90;;;;;;5024710;28;20094;-57
2021/12/04 04:07:09;;;;;;;4.88;3.85;;;4.20;99.90;;;;;;5024961;28;20113;-56
2021/12/04 04:09:36;;;;;;;5.07;3.65;;;4.10;99.90;;;;;;5026514;28;20050;-57
2021/12/04 04:12:03;;;;;;;4.45;3.55;;;4.10;99.90;;;;;;5026619;28;20729;-55
2021/12/04 04:14:30;;;;;;;5.80;4.15;;;4.10;99.90;;;;;;5024100;28;20129;-56
2021/12/04 04:16:57;;;;;;;5.50;4.10;;;4.10;99.90;;;;;;5023956;28;20103;-57
2021/12/04 04:19:24;;;;;;;6.80;4.30;;;4.10;99.90;;;;;;5023826;28;20099;-55
2021/12/04 04:21:58;;;;;;;5.93;4.22;;;4.20;99.90;;;;;;5023661;28;20053;-56
2021/12/04 04:24:27;;;;;;;4.78;3.70;;;4.20;99.90;;;;;;5023423;28;20107;-56
2021/12/04 04:26:54;;;;;;;4.97;3.90;;;4.30;99.90;;;;;;5022946;28;20521;-57
2021/12/04 04:29:21;;;;;;;5.70;3.67;;;4.30;99.90;;;;;;5020978;28;20141;-56
2021/12/04 04:31:49;;;;;;;5.22;3.40;;;4.40;99.90;;;;;;5024664;28;20140;-55
2021/12/04 04:34:25;;;;;;;4.47;3.28;;;4.40;99.90;;;;;;5022842;28;20081;-57
2021/12/04 04:59:09;;;;;;;3.22;2.67;;;5.10;99.90;;;;;;5022938;28;20103;-58
2021/12/04 05:12:54;;;;;;;3.33;2.80;;;5.50;99.90;;;;;;5024641;28;20073;-56
2021/12/04 05:21:06;;;;;;;3.83;2.47;;;6.00;99.90;;;;;;5020466;28;20049;-57
2021/12/04 05:23:38;;;;;;;2.25;1.80;;;6.10;99.90;;;;;;5026118;28;20041;-57
2021/12/04 05:26:06;;;;;;;2.90;2.28;;;6.20;99.90;;;;;;5025783;28;20083;-56
2021/12/04 05:28:33;;;;;;;2.58;1.98;;;6.30;99.90;;;;;;5024953;28;20084;-56
2021/12/04 05:31:00;;;;;;;2.80;2.10;;;6.40;99.90;;;;;;5024599;28;20069;-56
2021/12/04 05:33:27;;;;;;;3.70;2.08;;;6.40;99.90;;;;;;5025502;28;20137;-55
2021/12/04 05:35:54;;;;;;;2.63;1.73;;;6.50;99.90;;;;;;5025294;28;20462;-57
2021/12/04 05:38:21;;;;;;;2.83;2.20;;;6.50;99.90;;;;;;5026072;28;20049;-57
2021/12/04 05:40:48;;;;;;;2.55;1.90;;;6.60;99.90;;;;;;5024820;28;20152;-57
2021/12/04 05:43:16;;;;;;;3.25;2.30;;;6.60;99.90;;;;;;5024396;28;20128;-57
2021/12/04 05:45:51;;;;;;;3.92;2.78;;;6.70;99.90;;;;;;5024800;28;20141;-57
2021/12/04 05:51:05;;;;;;;3.83;3.17;;;6.90;99.90;;;;;;5023162;28;20041;-58
2021/12/04 05:56:28;;;;;;;4.00;3.13;;;7.10;99.90;;;;;;5002741;28;20520;-59
2021/12/04 05:58:55;;;;;;;4.65;3.60;;;7.10;99.90;;;;;;5022953;28;20088;-58
2021/12/04 06:01:22;;;;;;;5.40;4.82;;;7.10;99.90;;;;;;5021980;28;20077;-58
2021/12/04 06:03:49;;;;;;;6.28;3.78;;;7.00;99.90;;;;;;5020415;28;20215;-59
2021/12/04 06:06:16;;;;;;;4.88;4.40;;;7.00;99.90;;;;;;5021345;28;20098;-59
2021/12/04 06:08:43;;;;;;;5.57;4.93;;;7.00;99.90;;;;;;5021895;28;20128;-59
2021/12/04 06:11:10;;;;;;;6.95;5.72;;;6.90;99.90;;;;;;5019916;28;20065;-59
2021/12/04 06:13:36;;;;;;;5.93;5.22;;;7.00;99.90;;;;;;5020760;28;20073;-58
2021/12/04 06:16:03;;;;;;;6.70;5.45;;;6.90;99.90;;;;;;5020688;28;20558;-58
2021/12/04 06:18:32;;;;;;;5.15;4.50;;;6.90;99.90;;;;;;5020541;28;20053;-60
2021/12/04 06:23:44;;;;;;;6.25;5.22;;;6.90;99.90;;;;;;5013174;28;20045;-59
2021/12/04 06:26:11;;;;;;;5.75;4.55;;;6.80;99.90;;;;;;5024160;28;20084;-57
2021/12/04 06:28:38;;;;;;;6.32;4.85;;;6.90;99.90;;;;;;5023600;28;20119;-58
2021/12/04 06:31:07;;;;;;;4.90;4.40;;;6.90;99.90;;;;;;5022521;28;20132;-59
2021/12/04 06:33:34;;;;;;;5.18;4.40;;;6.90;99.90;;;;;;5024376;28;20076;-59
2021/12/04 06:36:01;;;;;;;5.68;4.20;;;6.90;99.90;;;;;;5024227;28;20512;-58
2021/12/04 06:38:27;;;;;;;5.03;4.35;;;6.90;99.90;;;;;;5024497;28;20045;-58
2021/12/04 06:40:55;;;;;;;6.28;4.43;;;6.90;99.90;;;;;;5023427;28;20141;-58
2021/12/04 06:43:22;;;;;;;4.90;4.40;;;6.90;99.90;;;;;;5024118;28;20472;-59
2021/12/04 06:46:03;;;;;;;5.30;4.43;;;6.90;99.90;;;;;;5023247;28;20591;-59
2021/12/04 06:53:57;;;;;;;5.57;4.90;;;6.90;99.90;;;;;;5023462;28;20139;-59
2021/12/04 06:56:31;;;;;;;7.20;4.85;;;6.90;99.90;;;;;;5023371;28;20045;-59
2021/12/04 06:58:58;;;;;;;6.45;5.55;;;7.00;99.90;;;;;;5026014;28;20041;-59
2021/12/04 07:01:24;;;;;;;6.50;5.35;;;6.90;99.90;;;;;;5023613;28;20141;-59
2021/12/04 07:03:52;;;;;;;6.00;5.38;;;6.90;99.90;;;;;;5023407;28;20055;-59
2021/12/04 07:06:18;;;;;;;7.80;6.05;;;6.90;99.90;;;;;;5023165;28;20081;-59
2021/12/04 07:08:45;;;;;;;7.05;5.40;;;6.90;99.90;;;;;;5023607;28;20095;-59
2021/12/04 07:11:12;;;;;;;6.50;5.75;;;6.90;99.90;;;;;;5023324;28;20129;-59
2021/12/04 07:13:38;;;;;;;6.43;5.82;;;6.90;99.90;;;;;;5023549;28;20136;-59
2021/12/04 07:16:08;;;;;;;6.28;5.28;;;6.80;99.90;;;;;;5022958;28;20152;-60
2021/12/04 07:18:35;;;;;;;5.75;4.90;;;6.70;99.90;;;;;;5023333;28;20410;-59
2021/12/04 07:21:02;;;;;;;6.75;6.00;;;6.70;99.90;;;;;;5023722;28;20049;-59
2021/12/04 07:23:29;;;;;;;6.65;5.80;;;6.70;99.90;;;;;;5024634;28;20080;-59
2021/12/04 07:25:56;;;;;;;6.97;5.45;;;6.70;99.90;;;;;;5026124;28;20481;-58
2021/12/04 07:28:23;;;;;;;7.38;6.32;;;6.70;99.90;;;;;;5026389;28;20516;-59
2021/12/04 07:30:51;;;;;;;6.63;5.50;;;6.70;99.90;;;;;;5025893;28;20503;-59
2021/12/04 07:33:17;;;;;;;6.88;6.15;;;6.60;99.90;;;;;;5025463;28;20042;-59
2021/12/04 07:35:44;;;;;;;6.85;5.53;;;6.60;99.90;;;;;;5024631;28;20053;-59
2021/12/04 07:38:11;;;;;;;8.40;6.95;;;6.50;99.90;;;;;;5022705;28;20045;-59
2021/12/04 07:40:38;;;;;;;7.28;6.20;;;6.50;99.90;;;;;;5023398;28;20160;-58
2021/12/04 07:43:05;;;;;;;8.27;5.95;;;6.50;99.90;;;;;;5023262;28;20626;-59
2021/12/04 07:45:32;;;;;;;7.45;5.82;;;6.50;99.90;;;;;;5017816;28;20108;-59
2021/12/04 07:47:58;;;;;;;7.13;5.55;;;6.50;99.90;;;;;;5020352;28;20089;-59
2021/12/04 07:50:25;;;;;;;6.20;5.38;;;6.50;99.90;;;;;;5019788;28;20587;-58
2021/12/04 07:52:52;;;;;;;7.00;5.03;;;6.40;99.90;;;;;;5020330;28;20049;-59
2021/12/04 07:55:19;;;;;;;6.60;5.38;;;6.40;99.90;;;;;;5018325;28;20048;-59
2021/12/04 07:57:46;;;;;;;5.55;4.90;;;6.40;99.90;;;;;;5018887;28;20104;-59
2021/12/04 08:00:14;;;;;;;5.30;4.80;;;6.40;99.90;;;;;;5017301;28;20165;-59
2021/12/04 08:02:41;;;;;;;6.40;5.22;;;6.40;99.90;;;;;;5015868;28;20103;-59
2021/12/04 08:05:09;;;;;;;5.68;4.50;;;6.40;99.90;;;;;;5018280;28;20044;-59
2021/12/04 08:07:36;;;;;;;4.75;3.97;;;6.30;99.90;;;;;;5017309;28;20057;-59
2021/12/04 08:10:03;;;;;;;4.85;4.10;;;6.30;99.90;;;;;;5017606;28;20124;-59
2021/12/04 08:12:30;;;;;;;5.03;4.07;;;6.30;99.90;;;;;;5018997;28;20160;-59
2021/12/04 08:14:56;;;;;;;5.15;3.83;;;6.30;99.90;;;;;;5018551;28;20137;-59
2021/12/04 08:17:25;;;;;;;6.93;4.82;;;6.20;99.90;;;;;;5020009;28;20145;-59
2021/12/04 08:19:51;;;;;;;4.63;4.07;;;6.20;99.90;;;;;;5019056;28;20099;-59
2021/12/04 08:22:18;;;;;;;6.30;3.80;;;6.20;99.90;;;;;;5019344;28;20899;-58
2021/12/04 08:24:47;;;;;;;4.05;3.35;;;6.20;99.90;;;;;;5019339;28;20470;-59
2021/12/04 08:27:14;;;;;;;5.10;3.63;;;6.10;99.90;;;;;;5019174;28;20693;-59
2021/12/04 08:29:41;;;;;;;3.97;3.38;;;6.10;99.90;;;;;;5016899;28;20084;-58
2021/12/04 08:32:08;;;;;;;4.03;3.47;;;6.10;99.90;;;;;;5019721;28;20140;-58
2021/12/04 08:34:36;;;;;;;4.07;3.35;;;6.10;99.90;;;;;;5018681;28;20634;-59
2021/12/04 08:37:03;;;;;;;4.53;3.30;;;6.00;99.90;;;;;;5019022;28;20093;-59
2021/12/04 08:39:30;;;;;;;5.13;3.67;;;6.00;99.90;;;;;;5019251;28;20163;-59
2021/12/04 08:41:58;;;;;;;5.05;3.63;;;6.00;99.90;;;;;;5019278;28;20049;-58
2021/12/04 08:44:25;;;;;;;4.22;3.30;;;6.00;99.90;;;;;;5017286;28;20054;-58
2021/12/04 08:46:52;;;;;;;5.72;3.90;;;5.90;99.90;;;;;;5018666;28;20133;-58
2021/12/04 08:49:18;;;;;;;3.97;3.38;;;5.90;99.90;;;;;;5015643;28;20073;-58
2021/12/04 08:51:45;;;;;;;4.38;3.35;;;5.80;99.90;;;;;;5018836;28;20054;-58
2021/12/04 08:54:12;;;;;;;4.35;3.13;;;5.80;99.90;;;;;;5018639;28;20670;-56
2021/12/04 08:56:39;;;;;;;3.88;3.03;;;5.70;99.90;;;;;;5019233;28;20160;-55
2021/12/04 08:59:07;;;;;;;3.95;3.15;;;5.70;99.90;;;;;;5019131;28;20136;-58
2021/12/04 09:01:37;;;;;;;6.38;2.88;;;5.70;99.90;;;;;;5016904;28;20050;-58
2021/12/04 09:04:10;;;;;;;4.72;3.00;;;5.60;99.90;;;;;;5018210;28;20064;-58
2021/12/04 09:06:37;;;;;;;5.90;2.35;;;5.60;99.90;;;;;;5018827;28;20149;-58
2021/12/04 09:09:05;;;;;;;4.82;2.80;;;5.50;99.90;;;;;;5018455;28;20081;-58
2021/12/04 09:11:35;;;;;;;5.38;2.55;;;5.50;99.90;;;;;;5018735;28;20053;-58
2021/12/04 09:14:02;;;;;;;2.97;2.53;;;5.50;99.90;;;;;;5016451;28;20140;-58
2021/12/04 09:16:29;;;;;;;3.92;2.05;;;5.40;99.90;;;;;;5014617;28;20069;-58
2021/12/04 09:18:56;;;;;;;4.88;2.25;;;5.40;99.90;;;;;;5017106;28;20080;-58
2021/12/04 09:21:24;;;;;;;4.93;2.50;;;5.40;99.90;;;;;;5017430;28;20835;-58
2021/12/04 09:24:04;;;;;;;5.60;1.85;;;5.40;99.90;;;;;;5017403;28;20442;-58
2021/12/04 09:26:42;;;;;;;3.92;1.90;;;5.40;99.90;;;;;;5016636;28;20556;-58
2021/12/04 09:30:02;;;;;;;4.35;1.75;;;5.40;99.90;;;;;;5016549;28;20554;-56
2021/12/04 10:15:44;;;;;;;2.78;1.60;;;5.40;99.90;;;;;;5020153;28;20124;-57
2021/12/04 10:34:30;;;;;;;5.82;1.45;;;5.50;99.90;;;;;;5018018;28;20123;-58
2021/12/04 10:37:14;;;;;;;7.75;2.33;;;5.50;99.90;;;;;;5020884;28;20382;-58
2021/12/04 10:39:41;;;;;;;8.93;2.33;;;5.50;99.90;;;;;;5017177;28;20045;-58
2021/12/04 10:42:14;;;;;;;6.90;1.70;;;5.50;99.90;;;;;;5019353;28;20545;-55
2021/12/04 10:44:44;;;;;;;6.40;1.98;;;5.50;99.90;;;;;;5017336;28;20057;-58
2021/12/04 10:47:12;;;;;;;8.05;1.73;;;5.60;99.90;;;;;;5004218;28;20208;-59
2021/12/04 10:49:51;;;;;;;4.68;1.45;;;5.60;99.90;;;;;;5017164;28;20123;-58
2021/12/04 10:52:57;;;;;;;6.95;1.77;;;5.60;99.90;;;;;;5020513;28;20168;-58
2021/12/04 11:02:56;;;;;;;5.55;1.63;;;5.70;99.90;;;;;;5020414;28;20125;-58
2021/12/04 11:25:09;;;;;;;7.65;2.17;;;5.90;99.90;;;;;;5018350;28;20149;-57
2021/12/04 11:36:22;;;;;;;6.40;1.88;;;6.00;99.90;;;;;;5020032;28;20072;-57
2021/12/04 11:41:59;;;;;;;7.97;2.35;;;6.20;99.90;;;;;;5018507;28;20084;-57
2021/12/04 11:44:46;;;;;;;4.60;1.90;;;6.30;99.90;;;;;;5016489;28;20755;-53
2021/12/04 11:47:14;;;;;;;6.85;2.47;;;6.50;99.90;;;;;;5004384;28;20052;-58
2021/12/04 11:49:46;;;;;;;4.00;1.33;;;6.50;99.90;;;;;;5018179;28;20049;-59
2021/12/04 11:52:18;;;;;;;6.30;1.88;;;6.60;99.90;;;;;;5012411;28;20072;-59
2021/12/04 11:54:55;;;;;;;5.30;1.98;;;6.70;99.90;;;;;;5016660;28;20159;-58
2021/12/04 11:57:33;;;;;;;5.05;1.70;;;6.80;99.90;;;;;;5016994;28;20080;-58
2021/12/04 12:00:27;;;;;;;6.65;2.28;;;6.80;99.90;;;;;;5018734;28;20237;-58
2021/12/04 12:03:14;;;;;;;6.88;1.77;;;6.90;99.90;;;;;;5018063;28;20050;-55
2021/12/04 12:05:45;;;;;;;9.57;2.50;;;6.90;99.90;;;;;;5018101;28;20065;-58
2021/12/04 12:08:35;;;;;;;6.85;2.45;;;6.90;99.90;;;;;;5017968;28;20073;-58
2021/12/04 12:11:05;;;;;;;11.00;2.25;;;7.00;99.90;;;;;;5018309;28;20414;-58
2021/12/04 12:13:38;;;;;;;7.90;2.10;;;7.20;99.90;;;;;;5016507;28;20124;-56
2021/12/04 12:16:07;;;;;;;6.15;1.85;;;7.10;99.90;;;;;;5017711;28;20129;-58
2021/12/04 12:18:55;;;;;;;5.60;1.75;;;7.20;99.90;;;;;;5016849;28;20927;-58
2021/12/04 12:21:31;;;;;;;6.22;1.65;;;7.40;99.90;;;;;;5016300;28;20053;-59
2021/12/04 12:33:02;;;;;;;9.25;2.35;;;7.80;99.90;;;;;;5008524;28;20148;-58
2021/12/04 12:38:53;;;;;;;3.92;1.50;;;7.90;99.90;;;;;;5014815;28;20123;-58
2021/12/04 12:41:49;;;;;;;7.50;2.20;;;8.10;99.90;;;;;;5017585;28;20137;-58
2021/12/04 12:44:19;;;;;;;4.00;1.60;;;8.20;99.90;;;;;;5006980;28;20111;-55
2021/12/04 12:46:56;;;;;;;4.10;1.52;;;8.20;99.90;;;;;;5016855;28;20091;-58
2021/12/04 12:49:29;;;;;;;6.00;1.90;;;8.20;99.90;;;;;;5012640;28;20138;-58
2021/12/04 12:52:22;;;;;;;7.65;1.73;;;8.30;99.90;;;;;;5016472;28;20214;-59
2021/12/04 12:54:56;;;;;;;5.07;1.87;;;8.30;99.90;;;;;;5017150;28;20080;-58
2021/12/04 12:57:26;;;;;;;6.85;1.50;;;8.30;99.90;;;;;;5017558;28;20834;-58
2021/12/04 13:11:40;;;;;;;4.68;1.38;;;8.10;99.90;;;;;;5016717;28;20152;-59
2021/12/04 13:14:09;;;;;;;6.60;1.50;;;8.00;99.90;;;;;;5016311;28;20081;-56
2021/12/04 13:16:36;;;;;;;2.85;1.10;;;8.00;99.90;;;;;;5016713;28;20149;-59
2021/12/04 13:19:07;;;;;;;7.78;1.83;;;8.10;99.90;;;;;;5014189;28;20152;-58
2021/12/04 13:21:34;;;;;;;6.32;1.55;;;7.90;99.90;;;;;;5008805;28;20179;-58
2021/12/04 13:24:01;;;;;;;5.13;2.00;;;7.90;99.90;;;;;;5013187;28;20053;-58
2021/12/04 13:26:33;;;;;;;3.38;1.38;;;7.90;99.90;;;;;;5015679;28;20077;-58
2021/12/04 13:29:01;;;;;;;5.00;1.43;;;7.90;99.90;;;;;;5010856;28;20081;-58
2021/12/04 13:31:28;;;;;;;7.07;1.70;;;7.80;99.90;;;;;;5011925;28;20053;-58
2021/12/04 13:33:54;;;;;;;2.80;1.20;;;7.90;99.90;;;;;;5016354;28;20049;-58
2021/12/04 13:36:26;;;;;;;3.70;1.33;;;7.90;99.90;;;;;;5018466;28;20200;-58
2021/12/04 13:38:57;;;;;;;3.17;1.27;;;7.90;99.90;;;;;;5018874;28;20100;-58
2021/12/04 13:41:24;;;;;;;7.15;1.52;;;7.90;99.90;;;;;;5018762;28;20111;-58
2021/12/04 13:43:54;;;;;;;3.08;1.40;;;7.90;99.90;;;;;;5017489;28;20580;-58
2021/12/04 13:46:21;;;;;;;6.63;1.67;;;8.00;99.90;;;;;;5019243;28;20080;-58
2021/12/04 13:48:51;;;;;;;4.53;1.60;;;8.20;99.90;;;;;;5018446;28;20057;-58
2021/12/04 13:51:18;;;;;;;3.80;1.30;;;8.30;99.90;;;;;;5016682;28;20327;-56
2021/12/04 13:53:46;;;;;;;5.88;2.25;;;8.20;99.90;;;;;;5015375;28;20477;-58
2021/12/04 13:56:14;;;;;;;4.35;1.20;;;8.20;99.90;;;;;;5018513;28;20057;-57
2021/12/04 13:58:49;;;;;;;3.22;1.20;;;8.10;99.90;;;;;;5017626;28;20053;-58
2021/12/04 14:01:16;;;;;;;3.90;1.60;;;8.10;99.90;;;;;;5014651;28;20104;-58
2021/12/04 14:03:43;;;;;;;5.45;1.20;;;8.10;99.90;;;;;;5018542;28;20049;-58
2021/12/04 14:06:19;;;;;;;4.60;1.15;;;8.20;99.90;;;;;;5014638;28;20693;-58
2021/12/04 14:09:13;;;;;;;3.60;1.27;;;8.10;99.90;;;;;;5017752;28;20077;-58
2021/12/04 14:11:40;;;;;;;5.22;1.77;;;8.10;99.90;;;;;;5018252;28;20053;-58
2021/12/04 14:14:19;;;;;;;3.22;1.35;;;8.00;99.90;;;;;;5017282;28;20053;-58
2021/12/04 14:16:47;;;;;;;2.88;1.10;;;8.00;99.90;;;;;;5016812;28;20084;-58
2021/12/04 14:19:15;;;;;;;4.82;1.60;;;8.00;99.90;;;;;;5017633;28;20128;-56
2021/12/04 14:21:50;;;;;;;4.35;1.33;;;8.00;99.90;;;;;;5016973;28;20169;-58
2021/12/04 14:24:52;;;;;;;4.72;1.67;;;8.00;99.90;;;;;;5019709;28;20128;-58
2021/12/04 14:27:26;;;;;;;5.25;1.73;;;8.00;99.90;;;;;;5033983;28;20124;-57
2021/12/04 14:29:56;;;;;;;3.33;1.25;;;8.00;99.90;;;;;;5018605;28;20115;-58
2021/12/04 14:32:24;;;;;;;4.43;1.40;;;7.90;99.90;;;;;;5018247;28;20136;-58
2021/12/04 14:34:58;;;;;;;4.78;1.73;;;7.90;99.90;;;;;;5020643;28;20049;-57
2021/12/04 14:37:25;;;;;;;4.30;1.83;;;8.00;99.90;;;;;;5020073;28;20129;-58
2021/12/04 14:39:55;;;;;;;4.45;1.95;;;8.10;99.90;;;;;;5021018;28;20077;-56
2021/12/04 14:42:25;;;;;;;8.77;1.80;;;8.10;99.90;;;;;;5019991;28;20103;-58
2021/12/04 14:44:54;;;;;;;4.63;1.92;;;8.10;99.90;;;;;;5019875;28;20069;-58
2021/12/04 14:47:21;;;;;;;3.10;1.50;;;8.10;99.90;;;;;;5020852;28;20115;-58
2021/12/04 14:49:49;;;;;;;5.88;1.33;;;8.00;99.90;;;;;;5020154;28;20058;-57
2021/12/04 14:52:21;;;;;;;4.13;1.60;;;8.10;99.90;;;;;;5018261;28;20493;-58
2021/12/04 14:54:49;;;;;;;4.97;1.65;;;8.00;99.90;;;;;;5019589;28;20081;-58
2021/12/04 14:57:22;;;;;;;6.35;1.67;;;8.00;99.90;;;;;;5020671;28;20133;-58
2021/12/04 15:00:31;;;;;;;3.63;1.40;;;8.00;99.90;;;;;;5018489;28;20088;-58
2021/12/04 15:03:03;;;;;;;4.10;1.27;;;8.00;99.90;;;;;;5001472;28;20134;-58
2021/12/04 15:05:33;;;;;;;5.40;1.48;;;8.00;99.90;;;;;;5016996;28;20050;-58
2021/12/04 15:08:06;;;;;;;5.40;1.60;;;8.00;99.90;;;;;;5019612;28;20134;-58
2021/12/04 15:10:41;;;;;;;5.05;1.58;;;7.90;99.90;;;;;;5020444;28;20069;-58
2021/12/04 15:13:22;;;;;;;3.45;1.10;;;7.90;99.90;;;;;;5020424;28;20727;-58
2021/12/04 15:15:52;;;;;;;4.15;1.25;;;7.90;99.90;;;;;;5014818;28;20120;-58
2021/12/04 15:18:23;;;;;;;4.03;1.40;;;7.90;99.90;;;;;;5022197;28;20089;-59
2021/12/04 15:20:59;;;;;;;3.25;1.27;;;7.90;99.90;;;;;;5017950;28;20105;-58
2021/12/04 15:23:29;;;;;;;4.78;1.42;;;7.90;99.90;;;;;;5019539;28;20516;-59
2021/12/04 15:26:00;;;;;;;4.20;1.48;;;7.80;99.90;;;;;;5020604;28;20049;-58
2021/12/04 15:28:28;;;;;;;4.03;1.30;;;7.70;99.90;;;;;;5019714;28;20053;-58
2021/12/04 15:30:57;;;;;;;3.20;1.23;;;7.70;99.90;;;;;;5017001;28;20126;-58
2021/12/04 15:33:38;;;;;;;4.15;1.15;;;7.60;99.90;;;;;;5020464;28;20053;-58
2021/12/04 15:36:24;;;;;;;4.63;2.50;;;7.50;99.90;;;;;;5018538;28;20156;-59
2021/12/04 15:38:53;;;;;;;4.55;1.17;;;7.40;99.90;;;;;;5020564;28;20089;-58
2021/12/04 15:44:42;;;;;;;2.70;1.50;;;7.40;99.90;;;;;;5019319;28;20076;-58
2021/12/04 15:55:15;;;;;;;4.55;1.60;;;7.10;99.90;;;;;;5019492;28;20135;-58
2021/12/04 15:58:11;;;;;;;5.00;1.88;;;7.10;99.90;;;;;;5018639;28;20465;-59
2021/12/04 16:00:41;;;;;;;4.07;1.50;;;7.00;99.90;;;;;;5014569;28;20152;-56
2021/12/04 16:03:10;;;;;;;4.28;1.70;;;6.90;99.90;;;;;;5018483;28;20049;-58
2021/12/04 16:05:38;;;;;;;3.60;1.60;;;6.90;99.90;;;;;;5018802;28;20471;-59
2021/12/04 16:08:07;;;;;;;4.57;1.60;;;6.90;99.90;;;;;;5018745;28;20121;-58
2021/12/04 16:10:36;;;;;;;4.50;1.55;;;6.90;99.90;;;;;;5016375;28;20085;-59
2021/12/04 16:13:03;;;;;;;5.03;1.48;;;6.90;99.90;;;;;;5018278;28;20049;-58
2021/12/04 16:15:30;;;;;;;3.17;1.33;;;6.90;99.90;;;;;;5016458;28;20567;-59
2021/12/04 16:17:57;;;;;;;4.38;1.60;;;6.80;99.90;;;;;;5019713;28;20085;-59
2021/12/04 16:20:24;;;;;;;3.97;2.05;;;6.80;99.90;;;;;;5017851;28;20085;-58
2021/12/04 16:22:52;;;;;;;7.18;1.77;;;6.70;99.90;;;;;;5018259;28;20148;-58
2021/12/04 16:25:23;;;;;;;3.78;1.40;;;6.70;99.90;;;;;;5018408;28;20378;-59
2021/12/04 16:28:02;;;;;;;2.70;1.17;;;6.60;99.90;;;;;;5017633;28;20124;-58
2021/12/04 16:30:36;;;;;;;7.40;1.60;;;6.60;99.90;;;;;;5017144;28;20108;-58
2021/12/04 16:33:10;;;;;;;5.18;1.80;;;6.60;99.90;;;;;;5017856;28;20053;-59
2021/12/04 16:38:05;;;;;;;5.57;3.33;;;6.60;99.90;;;;;;5019916;28;20504;-58